Vineland, NJ (08361)

12:01 AM EST on December 27, 2014 (GMT -0500)
KNJVINEL7 | Change Station
CLOSE
Current Station
Personal Weather Station
Location: Vineland, NJ
Elevation: 98 ft
Nearby Weather Stations

Elev 98 ft 39.46 °N, 74.98 °W | Updated 10 minutes ago

Clear
Clear
30.9 °F
Feels Like 31 °F
N
0.0
Wind Variable Wind from South

Today
High -- | Low -- °F
--% Chance of Precip.
Yesterday
High -- | Low -- °F
Precip. -- in
7:18 AM 4:43 PM
Waxing Crescent, 32% visible
Pressure 30.25 in
Visibility 10.0 miles
Clouds Clear
Windchill 31 °F
Dew Point 30 °F
Humidity 98%
Rainfall 0.00 in
Snow Depth Not available.
UV 0 out of 12
Pollen .10 out of 12
Air Quality Not available.
Flu Activity Not available.
METAR KMIV 270454Z AUTO 00000KT 10SM CLR M02/M03 A3025 RMK AO2 SLP244 T10221028 401001028

More Conditions Fewer Conditions

Pressure 30.25 in
Visibility 10.0 miles
Clouds Clear
Windchill 31 °F
Dew Point 30 °F
Humidity 98%
Rainfall 0.00 in
Snow Depth Not available.
UV 0 out of 12
Pollen .10 out of 12
Air Quality Not available.
Flu Activity Not available.
METAR KMIV 270454Z AUTO 00000KT 10SM CLR M02/M03 A3025 RMK AO2 SLP244 T10221028 401001028

More Conditions Fewer Conditions

10-Day Weather Forecast

Almanac

Astronomy

Dec. 27, 2014 Rise Set
Actual Time
Civil Twilight
Nautical Twilight
Astronomical Twilight
Moon
Length of Visible Light
Length of Day
Tomorrow will be .
, % of the Moon is Illuminated

Today's Extremes

State Highs State Lows

Community

WunderPhotos

Upload Photos

1,780,848 photos uploaded!

WunderBlogs® & News

Nearby

Air Quality

  Air Quality AQ Index Pollutant
Not available.

Snow Depth

Station Depth Elevation

Earthquake Activity

City Distance Mag. Time & Date
Minimum magnitude displayed is 2.5.

Coastal Water Temperatures

Place Temperature

Nearby Weather Stations